createdAt,value
2019-04-03T00:01:34.340Z,10.70
2019-04-03T00:04:04.659Z,10.60
2019-04-03T00:06:31.760Z,10.50
2019-04-03T00:08:58.381Z,10.50
2019-04-03T00:11:25.035Z,10.30
2019-04-03T00:13:51.549Z,10.30
2019-04-03T00:16:18.313Z,10.30
2019-04-03T00:18:46.777Z,10.10
2019-04-03T00:21:13.497Z,10.20
2019-04-03T00:23:40.136Z,10.40
2019-04-03T00:26:06.681Z,10.30
2019-04-03T00:28:33.508Z,10.30
2019-04-03T00:31:00.069Z,10.30
2019-04-03T00:33:26.891Z,10.20
2019-04-03T00:35:53.911Z,10.20
2019-04-03T00:38:20.494Z,10.10
2019-04-03T00:40:47.562Z,10.20
2019-04-03T00:43:15.813Z,10.20
2019-04-03T00:45:42.315Z,10.10
2019-04-03T00:48:08.880Z,10.10
2019-04-03T00:50:35.401Z,10.20
2019-04-03T00:53:01.980Z,10.10
2019-04-03T00:55:28.593Z,10.10
2019-04-03T00:57:56.441Z,10.10
2019-04-03T01:00:24.696Z,10.00
2019-04-03T01:02:52.264Z,10.10
2019-04-03T01:05:18.880Z,10.00
2019-04-03T01:07:45.438Z,10.00
2019-04-03T01:10:12.165Z,9.90
2019-04-03T01:12:38.704Z,10.00
2019-04-03T01:15:06.039Z,10.00
2019-04-03T01:17:34.172Z,10.00
2019-04-03T01:20:00.820Z,9.90
2019-04-03T01:22:27.284Z,9.70
2019-04-03T01:24:53.808Z,9.70
2019-04-03T01:27:20.259Z,9.80
2019-04-03T01:29:46.788Z,9.80
2019-04-03T01:32:15.409Z,9.80
2019-04-03T01:34:41.800Z,9.90
2019-04-03T01:37:08.351Z,9.80
2019-04-03T01:39:34.893Z,9.90
2019-04-03T01:42:01.458Z,9.90
2019-04-03T01:44:28.000Z,9.80
2019-04-03T01:46:57.329Z,9.90
2019-04-03T01:49:23.104Z,9.90
2019-04-03T01:51:49.616Z,10.00
2019-04-03T01:54:16.166Z,10.00
2019-04-03T01:56:42.787Z,9.90
2019-04-03T01:59:09.353Z,10.00
2019-04-03T02:01:37.904Z,10.00
2019-04-03T02:04:04.324Z,10.10
2019-04-03T02:06:31.247Z,10.10
2019-04-03T02:08:57.907Z,10.20
2019-04-03T02:11:25.129Z,10.10
2019-04-03T02:13:51.873Z,10.10
2019-04-03T02:16:18.500Z,10.20
2019-04-03T02:18:45.156Z,10.10
2019-04-03T02:21:11.687Z,10.30
2019-04-03T02:23:38.246Z,10.20
2019-04-03T02:26:04.768Z,10.30
2019-04-03T02:28:32.650Z,10.40
2019-04-03T02:30:59.946Z,10.30
2019-04-03T02:33:29.047Z,10.20
2019-04-03T02:35:55.460Z,10.10
2019-04-03T02:38:23.411Z,10.00
2019-04-03T02:40:50.385Z,10.10
2019-04-03T02:43:16.906Z,10.10
2019-04-03T02:45:44.343Z,10.10
2019-04-03T02:48:11.081Z,10.00
2019-04-03T02:50:38.043Z,10.00
2019-04-03T02:53:05.477Z,9.90
2019-04-03T02:55:32.313Z,9.90
2019-04-03T02:57:58.946Z,10.00
2019-04-03T03:00:25.591Z,10.00
2019-04-03T03:02:52.144Z,10.00
2019-04-03T03:05:19.390Z,9.90
2019-04-03T03:07:46.203Z,10.00
2019-04-03T03:10:13.075Z,9.90
2019-04-03T03:12:39.893Z,9.80
2019-04-03T03:15:11.171Z,9.70
2019-04-03T03:17:36.787Z,9.50
2019-04-03T03:20:07.710Z,9.50
2019-04-03T03:22:36.089Z,9.80
2019-04-03T03:25:04.164Z,9.70
2019-04-03T03:27:30.770Z,9.70
2019-04-03T03:29:59.737Z,9.50
2019-04-03T03:32:33.427Z,9.40
2019-04-03T03:35:07.577Z,9.30
2019-04-03T03:37:23.644Z,9.40
2019-04-03T03:39:53.745Z,9.30
2019-04-03T03:42:20.759Z,9.30
2019-04-03T03:44:47.902Z,9.20
2019-04-03T03:47:15.326Z,9.20
2019-04-03T03:49:43.114Z,9.20
2019-04-03T03:52:10.224Z,9.20
2019-04-03T03:54:37.874Z,9.20
2019-04-03T03:57:06.633Z,9.20
2019-04-03T03:59:33.247Z,9.20
2019-04-03T04:02:03.247Z,9.20
2019-04-03T04:04:28.468Z,9.40
2019-04-03T04:06:55.376Z,9.30
2019-04-03T04:09:22.388Z,9.40
2019-04-03T04:11:50.245Z,9.30
2019-04-03T04:14:21.140Z,9.30
2019-04-03T04:16:45.671Z,9.70
2019-04-03T04:19:12.564Z,9.60
2019-04-03T04:21:43.913Z,9.70
2019-04-03T04:24:10.382Z,9.80
2019-04-03T04:26:36.835Z,9.50
2019-04-03T04:29:05.367Z,9.50
2019-04-03T04:31:32.129Z,9.40
2019-04-03T04:34:00.552Z,9.30
2019-04-03T04:36:27.332Z,9.30
2019-04-03T04:38:54.036Z,9.50
2019-04-03T04:41:20.556Z,9.30
2019-04-03T04:43:47.079Z,9.30
2019-04-03T04:46:14.049Z,9.20
2019-04-03T04:48:40.563Z,9.20
2019-04-03T04:51:07.183Z,9.40
2019-04-03T04:53:33.664Z,9.50
2019-04-03T04:56:00.907Z,9.40
2019-04-03T04:58:28.437Z,9.30
2019-04-03T05:00:55.095Z,9.30
2019-04-03T05:03:22.309Z,9.20
2019-04-03T05:05:48.971Z,9.20
2019-04-03T05:08:15.790Z,9.50
2019-04-03T05:10:42.360Z,9.70
2019-04-03T05:13:08.976Z,9.80
2019-04-03T05:15:35.531Z,9.90
2019-04-03T05:18:02.568Z,9.80
2019-04-03T05:20:29.114Z,9.80
2019-04-03T05:22:57.753Z,9.80
2019-04-03T05:25:24.371Z,10.00
2019-04-03T05:27:52.119Z,10.10
2019-04-03T05:30:29.161Z,10.10
2019-04-03T05:32:56.428Z,10.00
2019-04-03T05:35:23.091Z,10.00
2019-04-03T05:37:50.936Z,10.00
2019-04-03T05:40:17.977Z,10.10
2019-04-03T05:42:44.550Z,10.00
2019-04-03T05:45:11.163Z,10.20
2019-04-03T05:47:39.249Z,10.20
2019-04-03T05:50:06.145Z,10.10
2019-04-03T05:52:34.607Z,10.00
2019-04-03T05:55:01.529Z,10.10
2019-04-03T05:57:29.147Z,10.20
2019-04-03T06:00:00.843Z,10.20
2019-04-03T06:02:24.601Z,10.30
2019-04-03T06:04:51.279Z,10.40
2019-04-03T06:07:18.863Z,10.30
2019-04-03T06:09:45.509Z,10.30
2019-04-03T06:12:14.223Z,10.30
2019-04-03T06:14:40.501Z,10.40
2019-04-03T06:17:06.956Z,10.50
2019-04-03T06:19:35.466Z,10.50
2019-04-03T06:22:01.974Z,10.50
2019-04-03T06:24:28.593Z,10.50
2019-04-03T06:26:55.014Z,10.60
2019-04-03T06:29:21.565Z,10.50
2019-04-03T06:31:48.085Z,10.50
2019-04-03T06:34:14.688Z,10.60
2019-04-03T06:36:41.541Z,10.70
2019-04-03T06:39:08.643Z,10.60
2019-04-03T06:41:35.883Z,10.70
2019-04-03T06:44:02.501Z,10.90
2019-04-03T06:46:29.880Z,10.90
2019-04-03T06:48:57.283Z,10.90
2019-04-03T06:51:23.920Z,11.00
2019-04-03T06:53:52.193Z,11.10
2019-04-03T06:56:19.818Z,11.00
2019-04-03T06:58:48.159Z,11.10
2019-04-03T07:01:14.809Z,11.20
2019-04-03T07:03:41.473Z,11.20
2019-04-03T07:06:08.000Z,11.40
2019-04-03T07:08:36.132Z,11.30
2019-04-03T07:11:02.990Z,11.50
2019-04-03T07:13:30.125Z,11.60
2019-04-03T07:15:57.585Z,11.70
2019-04-03T07:18:25.247Z,11.70
2019-04-03T07:20:52.596Z,11.70
2019-04-03T07:23:19.496Z,11.60
2019-04-03T07:25:46.153Z,11.60
2019-04-03T07:28:12.942Z,11.80
2019-04-03T07:30:40.548Z,11.80
2019-04-03T07:33:07.403Z,11.80
2019-04-03T07:35:34.058Z,11.80
2019-04-03T07:38:00.592Z,11.80
2019-04-03T07:40:27.158Z,11.90
2019-04-03T07:42:55.722Z,11.90
2019-04-03T07:45:22.040Z,12.20
2019-04-03T07:47:48.811Z,12.40
2019-04-03T07:50:15.920Z,12.60
2019-04-03T07:52:42.448Z,12.50
2019-04-03T07:55:09.488Z,12.40
2019-04-03T07:57:36.996Z,12.40
2019-04-03T08:00:08.144Z,12.50
2019-04-03T08:02:34.701Z,12.50
2019-04-03T08:05:01.385Z,12.70
2019-04-03T08:07:27.967Z,12.60
2019-04-03T08:09:56.988Z,12.70
2019-04-03T08:12:22.958Z,12.80
2019-04-03T08:14:49.614Z,12.80
2019-04-03T08:17:18.096Z,12.70
2019-04-03T08:19:45.904Z,12.90
2019-04-03T08:22:12.622Z,12.70
2019-04-03T08:24:40.141Z,13.00
2019-04-03T08:27:08.524Z,13.10
2019-04-03T08:29:37.966Z,13.00
2019-04-03T08:32:03.753Z,12.90
2019-04-03T08:34:31.700Z,12.90
2019-04-03T08:37:01.549Z,12.70
2019-04-03T08:39:27.940Z,12.90
2019-04-03T08:41:56.086Z,13.00
2019-04-03T08:44:23.035Z,13.10
2019-04-03T08:46:49.813Z,13.20
2019-04-03T08:49:16.440Z,13.10
2019-04-03T08:51:43.325Z,13.30
2019-04-03T08:54:11.114Z,13.20
2019-04-03T08:56:38.367Z,13.10
2019-04-03T08:59:05.462Z,13.20
2019-04-03T09:01:32.438Z,13.30
2019-04-03T09:03:59.199Z,13.70
2019-04-03T09:06:25.975Z,13.70
2019-04-03T09:08:52.570Z,13.60
2019-04-03T09:11:19.206Z,13.80
2019-04-03T09:13:46.005Z,14.00
2019-04-03T09:16:12.610Z,13.80
2019-04-03T09:18:39.236Z,13.90
2019-04-03T09:21:06.027Z,13.60
2019-04-03T09:23:32.916Z,13.70
2019-04-03T09:26:02.435Z,13.60
2019-04-03T09:28:29.649Z,13.70
2019-04-03T09:30:56.605Z,14.00
2019-04-03T09:33:25.524Z,13.90
2019-04-03T09:35:52.102Z,13.90
2019-04-03T09:38:20.623Z,14.20
2019-04-03T09:40:48.298Z,14.20
2019-04-03T09:43:16.432Z,14.20
2019-04-03T09:45:43.168Z,14.20
2019-04-03T09:48:12.280Z,14.50
2019-04-03T09:50:38.440Z,14.70
2019-04-03T09:53:05.213Z,14.60
2019-04-03T09:55:35.879Z,14.40
2019-04-03T09:58:00.955Z,14.40
2019-04-03T10:00:28.713Z,14.60
2019-04-03T10:02:55.572Z,15.00
2019-04-03T10:05:22.103Z,15.00
2019-04-03T10:07:48.679Z,15.10
2019-04-03T10:10:16.531Z,15.10
2019-04-03T10:12:47.303Z,15.20
2019-04-03T10:15:12.487Z,15.20
2019-04-03T10:17:39.630Z,15.20
2019-04-03T10:20:07.763Z,15.30
2019-04-03T10:22:34.196Z,15.30
2019-04-03T10:25:04.741Z,15.60
2019-04-03T10:27:29.080Z,15.60
2019-04-03T10:29:56.470Z,15.40
2019-04-03T10:32:23.513Z,15.50
2019-04-03T10:34:51.551Z,15.50
2019-04-03T10:37:18.068Z,15.70
2019-04-03T10:39:44.978Z,15.50
2019-04-03T10:42:11.560Z,15.30
2019-04-03T10:44:38.231Z,15.40
2019-04-03T10:47:04.843Z,15.40
2019-04-03T10:49:32.522Z,15.30
2019-04-03T10:51:59.836Z,15.30
2019-04-03T10:54:27.214Z,15.30
2019-04-03T10:56:53.826Z,15.10
2019-04-03T10:59:20.467Z,14.90
2019-04-03T11:01:46.987Z,15.00
2019-04-03T11:04:13.554Z,15.10
2019-04-03T11:06:40.184Z,15.10
2019-04-03T11:09:07.676Z,15.10
2019-04-03T11:11:36.524Z,15.10
2019-04-03T11:14:04.778Z,14.90
2019-04-03T11:16:31.444Z,14.50
2019-04-03T11:19:02.717Z,14.40
2019-04-03T11:21:26.564Z,14.30
2019-04-03T11:23:53.074Z,14.40
2019-04-03T11:26:23.144Z,14.40
2019-04-03T11:28:48.364Z,14.50
2019-04-03T11:31:24.997Z,14.60
2019-04-03T11:33:45.913Z,14.70
2019-04-03T11:36:12.210Z,14.70
2019-04-03T11:38:39.209Z,14.90
2019-04-03T11:41:12.847Z,14.80
2019-04-03T11:43:35.173Z,14.90
2019-04-03T11:46:02.774Z,15.00
2019-04-03T11:48:29.547Z,14.50
2019-04-03T11:50:56.988Z,14.50
2019-04-03T11:53:24.013Z,14.40
2019-04-03T11:55:50.837Z,14.70
2019-04-03T11:58:18.344Z,14.80
2019-04-03T12:00:48.155Z,14.90
2019-04-03T12:03:14.901Z,14.90
2019-04-03T12:05:41.643Z,14.60
2019-04-03T12:08:08.560Z,14.20
2019-04-03T12:10:35.631Z,14.90
2019-04-03T12:13:04.272Z,15.20
2019-04-03T12:15:33.817Z,15.10
2019-04-03T12:18:01.396Z,15.30
2019-04-03T12:20:28.382Z,15.10
2019-04-03T12:22:55.720Z,15.30
2019-04-03T12:25:22.654Z,15.20
2019-04-03T12:27:49.535Z,15.10
2019-04-03T12:30:17.355Z,15.10
2019-04-03T12:32:48.601Z,15.30
2019-04-03T12:35:12.998Z,14.90
2019-04-03T12:37:39.542Z,14.80
2019-04-03T12:40:07.680Z,15.00
2019-04-03T12:42:34.228Z,15.10
2019-04-03T12:45:00.748Z,14.80
2019-04-03T12:47:28.448Z,14.70
2019-04-03T12:49:56.635Z,14.70
2019-04-03T12:52:24.237Z,14.40
2019-04-03T12:54:52.859Z,14.50
2019-04-03T12:57:19.265Z,14.40
2019-04-03T12:59:47.618Z,14.50
2019-04-03T13:02:14.254Z,14.50
2019-04-03T13:04:40.788Z,14.20
2019-04-03T13:07:07.465Z,14.10
2019-04-03T13:09:34.111Z,14.40
2019-04-03T13:12:00.640Z,14.40
2019-04-03T13:14:28.199Z,14.40
2019-04-03T13:16:54.902Z,14.60
2019-04-03T13:19:22.431Z,14.60
2019-04-03T13:21:49.893Z,14.50
2019-04-03T13:24:17.570Z,14.50
2019-04-03T13:26:44.164Z,14.30
2019-04-03T13:29:10.821Z,14.50
2019-04-03T13:31:37.483Z,14.60
2019-04-03T13:34:04.422Z,14.40
2019-04-03T13:36:31.069Z,14.90
2019-04-03T13:39:00.295Z,15.00
2019-04-03T13:41:25.941Z,14.90
2019-04-03T13:43:53.897Z,14.80
2019-04-03T13:46:20.927Z,15.00
2019-04-03T13:48:47.591Z,14.90
2019-04-03T13:51:14.195Z,14.60
2019-04-03T13:53:40.962Z,14.50
2019-04-03T13:56:10.570Z,14.60
2019-04-03T13:58:35.835Z,14.60
2019-04-03T14:01:07.395Z,14.30
2019-04-03T14:03:32.002Z,14.20
2019-04-03T14:05:58.559Z,14.40
2019-04-03T14:08:25.567Z,14.30
2019-04-03T14:10:52.339Z,14.40
2019-04-03T14:13:19.460Z,14.40
2019-04-03T14:15:47.119Z,14.40
2019-04-03T14:18:13.641Z,14.60
2019-04-03T14:20:40.363Z,14.20
2019-04-03T14:23:07.035Z,14.10
2019-04-03T14:25:37.147Z,14.20
2019-04-03T14:28:03.371Z,14.30
2019-04-03T14:30:30.520Z,14.50
2019-04-03T14:32:57.552Z,14.20
2019-04-03T14:35:45.942Z,14.00
2019-04-03T14:37:53.200Z,14.40
2019-04-03T14:40:20.566Z,14.50
2019-04-03T14:42:47.673Z,14.50
2019-04-03T14:45:15.210Z,14.60
2019-04-03T14:47:42.791Z,14.50
2019-04-03T14:50:10.311Z,14.60
2019-04-03T14:52:37.239Z,14.50
2019-04-03T14:55:16.436Z,14.60
2019-04-03T14:57:34.829Z,14.50
2019-04-03T15:00:05.072Z,14.50
2019-04-03T15:02:30.077Z,14.60
2019-04-03T15:04:56.630Z,14.60
2019-04-03T15:07:23.214Z,14.70
2019-04-03T15:09:50.026Z,14.50
2019-04-03T15:12:16.833Z,14.40
2019-04-03T15:14:43.380Z,14.40
2019-04-03T15:17:10.290Z,14.40
2019-04-03T15:19:36.934Z,14.30
2019-04-03T15:22:03.493Z,14.30
2019-04-03T15:24:30.254Z,14.10
2019-04-03T15:26:56.766Z,14.10
2019-04-03T15:29:23.301Z,14.20
2019-04-03T15:31:50.258Z,14.30
2019-04-03T15:34:17.219Z,14.20
2019-04-03T15:36:43.770Z,14.30
2019-04-03T15:39:16.409Z,14.60
2019-04-03T15:41:42.478Z,14.70
2019-04-03T15:44:09.670Z,15.30
2019-04-03T15:46:36.328Z,15.80
2019-04-03T15:49:03.471Z,16.30
2019-04-03T15:51:30.151Z,16.50
2019-04-03T15:53:57.064Z,16.60
2019-04-03T15:56:25.137Z,17.00
2019-04-03T15:58:52.094Z,17.20
2019-04-03T16:01:18.632Z,17.20
2019-04-03T16:03:45.137Z,17.70
2019-04-03T16:06:12.031Z,17.60
2019-04-03T16:08:39.065Z,17.40
2019-04-03T16:11:05.959Z,16.90
2019-04-03T16:13:32.829Z,16.60
2019-04-03T16:16:00.805Z,16.30
2019-04-03T16:18:27.673Z,15.90
2019-04-03T16:20:54.243Z,15.40
2019-04-03T16:23:20.782Z,15.00
2019-04-03T16:25:49.299Z,14.90
2019-04-03T16:28:16.315Z,14.60
2019-04-03T16:30:43.014Z,14.50
2019-04-03T16:33:19.951Z,14.50
2019-04-03T16:35:38.219Z,14.40
2019-04-03T16:38:04.970Z,14.20
2019-04-03T16:40:32.460Z,14.10
2019-04-03T16:42:59.122Z,14.10
2019-04-03T16:45:25.609Z,14.10
2019-04-03T16:47:52.205Z,14.10
2019-04-03T16:50:18.796Z,13.90
2019-04-03T16:52:47.204Z,14.00
2019-04-03T16:55:15.872Z,14.00
2019-04-03T16:57:42.747Z,14.10
2019-04-03T17:00:11.145Z,14.00
2019-04-03T17:02:38.055Z,14.00
2019-04-03T17:05:06.848Z,13.90
2019-04-03T17:07:33.629Z,13.90
2019-04-03T17:10:00.720Z,13.90
2019-04-03T17:12:29.028Z,13.80
2019-04-03T17:14:56.475Z,13.80
2019-04-03T17:17:23.264Z,13.80
2019-04-03T17:19:50.949Z,13.80
2019-04-03T17:22:18.762Z,13.70
2019-04-03T17:24:48.934Z,13.60
2019-04-03T17:27:14.260Z,13.50
2019-04-03T17:29:40.908Z,13.40
2019-04-03T17:32:08.760Z,13.40
2019-04-03T17:34:41.676Z,13.40
2019-04-03T17:37:06.364Z,13.20
2019-04-03T17:39:33.945Z,13.20
2019-04-03T17:42:01.264Z,13.20
2019-04-03T17:44:27.805Z,13.00
2019-04-03T17:46:54.311Z,13.00
2019-04-03T17:49:20.999Z,12.80
2019-04-03T17:51:47.517Z,12.80
2019-04-03T17:54:14.102Z,12.60
2019-04-03T17:56:41.010Z,12.50
2019-04-03T17:59:09.072Z,12.50
2019-04-03T18:01:36.301Z,12.40
2019-04-03T18:04:03.310Z,12.30
2019-04-03T18:06:29.876Z,12.30
2019-04-03T18:08:56.416Z,12.30
2019-04-03T18:11:22.974Z,12.20
2019-04-03T18:13:50.330Z,12.20
2019-04-03T18:16:16.806Z,12.30
2019-04-03T18:18:43.501Z,12.10
2019-04-03T18:21:12.915Z,12.20
2019-04-03T18:23:39.277Z,12.10
2019-04-03T18:26:06.759Z,12.10
2019-04-03T18:28:35.500Z,12.00
2019-04-03T18:31:01.745Z,12.10
2019-04-03T18:33:28.344Z,12.10
2019-04-03T18:35:56.801Z,12.10
2019-04-03T18:38:23.361Z,12.10
2019-04-03T18:40:49.995Z,12.00
2019-04-03T18:43:16.595Z,11.90
2019-04-03T18:45:43.314Z,11.80
2019-04-03T18:48:09.856Z,11.70
2019-04-03T18:50:36.528Z,11.80
2019-04-03T18:53:03.394Z,12.00
2019-04-03T18:55:29.957Z,12.00
2019-04-03T18:57:56.485Z,11.90
2019-04-03T19:00:23.051Z,11.80
2019-04-03T19:02:49.593Z,11.80
2019-04-03T19:05:16.686Z,11.80
2019-04-03T19:07:45.898Z,11.60
2019-04-03T19:10:11.968Z,11.60
2019-04-03T19:12:38.857Z,11.60
2019-04-03T19:15:06.410Z,11.70
2019-04-03T19:17:33.131Z,11.70
2019-04-03T19:20:10.164Z,11.50
2019-04-03T19:22:29.293Z,11.30
2019-04-03T19:24:58.480Z,11.10
2019-04-03T19:27:24.411Z,11.30
2019-04-03T19:29:51.067Z,11.20
2019-04-03T19:32:17.914Z,11.30
2019-04-03T19:34:44.422Z,11.40
2019-04-03T19:37:11.280Z,11.40
2019-04-03T19:39:38.213Z,11.40
2019-04-03T19:42:04.886Z,11.30
2019-04-03T19:44:31.484Z,11.30
2019-04-03T19:46:57.988Z,11.20
2019-04-03T19:49:27.456Z,11.20
2019-04-03T19:51:53.112Z,11.10
2019-04-03T19:54:19.783Z,11.10
2019-04-03T19:56:47.651Z,11.00
2019-04-03T19:59:15.262Z,10.80
2019-04-03T20:01:43.544Z,10.90
2019-04-03T20:04:10.054Z,10.90
2019-04-03T20:06:36.736Z,10.80
2019-04-03T20:09:07.725Z,10.70
2019-04-03T20:11:35.919Z,10.90
2019-04-03T20:14:02.834Z,10.90
2019-04-03T20:16:29.564Z,10.80
2019-04-03T20:18:57.935Z,10.90
2019-04-03T20:21:25.291Z,10.90
2019-04-03T20:23:51.970Z,10.70
2019-04-03T20:26:18.651Z,10.60
2019-04-03T20:28:45.195Z,10.60
2019-04-03T20:31:11.797Z,10.70
2019-04-03T20:33:42.106Z,10.70
2019-04-03T20:36:07.959Z,10.80
2019-04-03T20:38:34.621Z,10.80
2019-04-03T20:41:03.206Z,10.70
2019-04-03T20:43:30.470Z,10.60
2019-04-03T20:45:56.998Z,10.50
2019-04-03T20:48:23.586Z,10.50
2019-04-03T20:50:50.257Z,10.50
2019-04-03T20:53:17.726Z,10.40
2019-04-03T20:55:44.416Z,10.50
2019-04-03T20:58:11.072Z,10.40
2019-04-03T21:00:37.785Z,10.40
2019-04-03T21:03:04.383Z,10.40
2019-04-03T21:05:30.932Z,10.30
2019-04-03T21:07:57.463Z,10.40
2019-04-03T21:10:24.028Z,10.50
2019-04-03T21:12:50.704Z,10.40
2019-04-03T21:15:17.272Z,10.40
2019-04-03T21:17:45.538Z,10.40
2019-04-03T21:20:12.278Z,10.40
2019-04-03T21:22:39.007Z,10.30
2019-04-03T21:25:06.341Z,10.00
2019-04-03T21:27:33.956Z,9.80
2019-04-03T21:30:02.826Z,9.90
2019-04-03T21:32:29.467Z,10.00
2019-04-03T21:34:56.129Z,10.00
2019-04-03T21:37:22.786Z,10.00
2019-04-03T21:39:49.431Z,10.20
2019-04-03T21:42:16.142Z,10.30
2019-04-03T21:44:42.880Z,10.10
2019-04-03T21:47:11.476Z,10.00
2019-04-03T21:49:37.756Z,10.00
2019-04-03T21:52:05.284Z,10.10
2019-04-03T21:54:32.731Z,10.20
2019-04-03T21:57:00.609Z,10.00
2019-04-03T21:59:28.153Z,9.90
2019-04-03T22:01:56.330Z,9.90
2019-04-03T22:04:23.488Z,10.10
2019-04-03T22:06:51.040Z,10.20
2019-04-03T22:09:18.684Z,10.30
2019-04-03T22:11:47.360Z,10.60
2019-04-03T22:14:14.443Z,10.60
2019-04-03T22:16:40.992Z,10.60
2019-04-03T22:19:09.217Z,10.50
2019-04-03T22:21:36.590Z,10.40
2019-04-03T22:24:06.588Z,10.40
2019-04-03T22:26:33.249Z,10.40
2019-04-03T22:28:59.809Z,10.40
2019-04-03T22:31:26.535Z,10.40
2019-04-03T22:33:53.092Z,10.40
2019-04-03T22:36:19.752Z,10.40
2019-04-03T22:38:46.287Z,10.50
2019-04-03T22:41:12.899Z,10.70
2019-04-03T22:43:39.555Z,10.80
2019-04-03T22:46:06.063Z,10.70
2019-04-03T22:48:32.735Z,10.90
2019-04-03T22:50:59.157Z,10.80
2019-04-03T22:53:25.698Z,10.50
2019-04-03T22:55:52.247Z,10.60
2019-04-03T22:58:19.001Z,10.60
2019-04-03T23:00:47.211Z,10.60
2019-04-03T23:03:13.962Z,10.70
2019-04-03T23:05:40.496Z,10.90
2019-04-03T23:08:06.955Z,10.80
2019-04-03T23:10:33.486Z,10.80
2019-04-03T23:13:00.275Z,10.70
2019-04-03T23:15:26.803Z,10.70
2019-04-03T23:17:53.464Z,10.90
2019-04-03T23:20:21.963Z,10.90
2019-04-03T23:22:50.154Z,11.10
2019-04-03T23:25:16.877Z,11.20
2019-04-03T23:27:43.847Z,11.20
2019-04-03T23:30:10.949Z,11.20
2019-04-03T23:32:37.691Z,11.10
2019-04-03T23:35:04.908Z,11.20
2019-04-03T23:37:31.378Z,11.30
2019-04-03T23:39:59.151Z,11.30
2019-04-03T23:42:26.445Z,11.50
2019-04-03T23:44:53.091Z,11.30
2019-04-03T23:47:19.635Z,11.40
2019-04-03T23:49:46.188Z,11.30
2019-04-03T23:52:12.826Z,11.30
2019-04-03T23:54:39.483Z,11.40
2019-04-03T23:57:06.106Z,11.40
2019-04-03T23:59:32.661Z,11.40
